Time;durP1;ratioP1;P1;durP2;ratioP2;P2;SDS_P1;SDS_P2;PMS_P1;PMS_P2;Temp;Humidity;BMP_temperature;BMP_pressure;BME280_temperature;BME280_humidity;BME280_pressure;Samples;Min_cycle;Max_cycle;Signal;HPM_P1;HPM_P2
2021/09/27 00:00:21;;;;;;;9.68;6.55;;;;;;;;;;5071620;28;20070;-62
2021/09/27 00:02:47;;;;;;;8.00;6.15;;;;;;;;;;5071285;28;20113;-62
2021/09/27 00:05:16;;;;;;;7.80;5.45;;;;;;;;;;5069456;28;20113;-62
2021/09/27 00:07:41;;;;;;;6.20;5.07;;;;;;;;;;5068324;28;20377;-64
2021/09/27 00:10:09;;;;;;;7.40;5.70;;;;;;;;;;5069200;28;20037;-62
2021/09/27 00:12:35;;;;;;;6.22;4.40;;;;;;;;;;5071050;28;20177;-62
2021/09/27 00:15:03;;;;;;;5.55;4.55;;;;;;;;;;5071140;28;20021;-62
2021/09/27 00:17:29;;;;;;;7.05;5.78;;;;;;;;;;5070367;28;20025;-62
2021/09/27 00:19:54;;;;;;;7.50;5.40;;;;;;;;;;5070176;28;20082;-62
2021/09/27 00:22:19;;;;;;;8.88;6.63;;;;;;;;;;5070122;28;20366;-62
2021/09/27 00:24:45;;;;;;;6.80;5.18;;;;;;;;;;5070308;28;20040;-62
2021/09/27 00:27:11;;;;;;;5.80;4.88;;;;;;;;;;5070983;28;20047;-62
2021/09/27 00:29:36;;;;;;;5.88;4.80;;;;;;;;;;5068045;28;20466;-62
2021/09/27 00:32:02;;;;;;;7.70;5.82;;;;;;;;;;5068976;28;20039;-62
2021/09/27 00:34:27;;;;;;;8.65;7.03;;;;;;;;;;5070702;28;20385;-62
2021/09/27 00:36:52;;;;;;;8.15;5.55;;;;;;;;;;5070170;28;20056;-62
2021/09/27 00:39:18;;;;;;;8.23;5.90;;;;;;;;;;5069173;28;20367;-62
2021/09/27 00:41:44;;;;;;;7.50;6.18;;;;;;;;;;5064730;28;20361;-62
2021/09/27 00:44:09;;;;;;;6.88;5.32;;;;;;;;;;5070789;28;20398;-62
2021/09/27 00:46:35;;;;;;;7.32;6.63;;;;;;;;;;5069359;28;20442;-62
2021/09/27 00:49:02;;;;;;;6.38;5.25;;;;;;;;;;5070523;28;20040;-62
2021/09/27 00:51:33;;;;;;;10.60;7.07;;;;;;;;;;5070409;28;20052;-62
2021/09/27 00:54:03;;;;;;;;;;;;;;;;;;5071202;28;20031;-62
2021/09/27 00:56:33;;;;;;;9.63;6.25;;;;;;;;;;5069549;28;19912;-62
2021/09/27 00:58:59;;;;;;;9.45;5.93;;;;;;;;;;5068598;28;20454;-62
2021/09/27 01:01:26;;;;;;;8.77;6.50;;;;;;;;;;5069948;28;20433;-62
2021/09/27 01:03:53;;;;;;;10.00;5.88;;;;;;;;;;5069817;28;20025;-62
2021/09/27 01:06:28;;;;;;;8.60;6.82;;;;;;;;;;5069807;28;20477;-62
2021/09/27 01:09:18;;;;;;;9.90;6.75;;;;;;;;;;5068553;28;20038;-62
2021/09/27 01:12:05;;;;;;;7.35;6.05;;;;;;;;;;5068997;28;20112;-62
2021/09/27 01:14:48;;;;;;;6.88;5.30;;;;;;;;;;5067933;28;20181;-62
2021/09/27 01:17:32;;;;;;;6.43;5.53;;;;;;;;;;5069730;28;20028;-62
2021/09/27 01:20:39;;;;;;;8.48;6.68;;;;;;;;;;5069904;28;20465;-62
2021/09/27 01:23:35;;;;;;;5.95;5.15;;;;;;;;;;5058580;28;20068;-62
2021/09/27 01:26:29;;;;;;;6.40;5.20;;;;;;;;;;5069735;28;20031;-62
2021/09/27 01:29:00;;;;;;;8.90;6.03;;;;;;;;;;5068383;28;20123;-62
2021/09/27 01:31:59;;;;;;;7.18;6.13;;;;;;;;;;5070226;28;20032;-62
2021/09/27 01:34:40;;;;;;;7.35;6.35;;;;;;;;;;5068897;28;20470;-62
2021/09/27 01:37:30;;;;;;;8.15;5.97;;;;;;;;;;5069265;28;20118;-62
2021/09/27 01:40:16;;;;;;;7.70;5.95;;;;;;;;;;5066837;28;20032;-62
2021/09/27 01:42:54;;;;;;;7.05;5.80;;;;;;;;;;5032560;28;20131;-62
2021/09/27 01:45:58;;;;;;;6.93;5.80;;;;;;;;;;5066614;28;20033;-62
2021/09/27 01:48:35;;;;;;;6.63;5.95;;;;;;;;;;5006905;28;20479;-62
2021/09/27 01:51:22;;;;;;;9.38;6.97;;;;;;;;;;5059083;28;20041;-62
2021/09/27 01:53:57;;;;;;;9.38;6.10;;;;;;;;;;5069162;28;20032;-62
2021/09/27 01:56:46;;;;;;;8.27;6.65;;;;;;;;;;5067361;28;20062;-62
2021/09/27 01:59:22;;;;;;;8.88;5.38;;;;;;;;;;5069202;28;20665;-62
2021/09/27 02:02:10;;;;;;;11.10;5.80;;;;;;;;;;5067552;28;20052;-62
2021/09/27 02:04:52;;;;;;;9.95;6.55;;;;;;;;;;5069734;28;20024;-62
2021/09/27 02:07:20;;;;;;;7.53;5.15;;;;;;;;;;5066968;28;20101;-62
2021/09/27 02:10:09;;;;;;;6.65;5.50;;;;;;;;;;5068300;28;20044;-62
2021/09/27 02:12:41;;;;;;;7.32;5.82;;;;;;;;;;5069803;28;20116;-62
2021/09/27 02:15:19;;;;;;;7.50;6.60;;;;;;;;;;5067223;28;20024;-63
2021/09/27 02:17:55;;;;;;;8.63;5.78;;;;;;;;;;5066534;28;20483;-63
2021/09/27 02:20:30;;;;;;;8.10;6.28;;;;;;;;;;5069222;28;20434;-63
2021/09/27 02:23:22;;;;;;;8.45;7.13;;;;;;;;;;5067233;28;20047;-63
2021/09/27 02:25:49;;;;;;;6.82;5.68;;;;;;;;;;5068165;28;20456;-63
2021/09/27 02:28:19;;;;;;;6.15;5.50;;;;;;;;;;5062769;28;20458;-63
2021/09/27 02:30:53;;;;;;;10.52;6.10;;;;;;;;;;5067054;28;20032;-62
2021/09/27 02:33:29;;;;;;;8.35;6.82;;;;;;;;;;5068954;28;20111;-62
2021/09/27 02:36:21;;;;;;;7.82;6.45;;;;;;;;;;5068854;28;20422;-61
2021/09/27 02:39:14;;;;;;;8.82;6.32;;;;;;;;;;5067069;28;20351;-61
2021/09/27 02:42:08;;;;;;;8.77;5.45;;;;;;;;;;5068562;28;20076;-61
2021/09/27 02:44:35;;;;;;;7.75;6.38;;;;;;;;;;5068949;28;20024;-61
2021/09/27 02:47:04;;;;;;;7.32;6.60;;;;;;;;;;5068944;28;20070;-61
2021/09/27 02:49:41;;;;;;;8.10;6.90;;;;;;;;;;5066100;28;20036;-62
2021/09/27 02:52:08;;;;;;;7.28;6.13;;;;;;;;;;5073096;28;20067;-61
2021/09/27 02:54:39;;;;;;;9.10;6.65;;;;;;;;;;5072432;28;20112;-62
2021/09/27 02:57:35;;;;;;;7.63;6.72;;;;;;;;;;5071951;28;20422;-61
2021/09/27 03:00:06;;;;;;;8.52;6.75;;;;;;;;;;5072640;28;20036;-61
2021/09/27 03:02:38;;;;;;;6.85;5.88;;;;;;;;;;5072081;28;20470;-61
2021/09/27 03:05:27;;;;;;;7.50;6.50;;;;;;;;;;5072393;28;20036;-61
2021/09/27 03:07:58;;;;;;;8.75;6.85;;;;;;;;;;5070193;28;20060;-61
2021/09/27 03:10:42;;;;;;;9.98;7.32;;;;;;;;;;5070638;28;20519;-62
2021/09/27 03:13:22;;;;;;;7.57;6.65;;;;;;;;;;5072367;28;20169;-62
2021/09/27 03:16:03;;;;;;;6.82;5.13;;;;;;;;;;5072517;28;20115;-62
2021/09/27 03:19:13;;;;;;;7.63;6.43;;;;;;;;;;5071289;28;20338;-62
2021/09/27 03:21:53;;;;;;;10.63;6.35;;;;;;;;;;4992762;28;20034;-62
2021/09/27 03:24:33;;;;;;;7.13;6.03;;;;;;;;;;4984950;28;20158;-62
2021/09/27 03:27:09;;;;;;;7.22;6.35;;;;;;;;;;5041957;28;20046;-62
2021/09/27 03:30:01;;;;;;;7.40;6.57;;;;;;;;;;5068454;28;20132;-62
2021/09/27 03:32:38;;;;;;;7.60;6.82;;;;;;;;;;5057494;28;20472;-62
2021/09/27 03:35:20;;;;;;;6.28;5.32;;;;;;;;;;5069159;28;20665;-62
2021/09/27 03:38:04;;;;;;;7.28;5.47;;;;;;;;;;5066095;28;20124;-61
2021/09/27 03:40:37;;;;;;;6.35;4.65;;;;;;;;;;5067582;28;20464;-61
2021/09/27 03:43:21;;;;;;;7.78;6.25;;;;;;;;;;5069121;28;20040;-61
2021/09/27 03:46:15;;;;;;;8.85;6.03;;;;;;;;;;5068424;28;20063;-62
2021/09/27 03:49:11;;;;;;;6.95;5.25;;;;;;;;;;5068160;28;20474;-61
2021/09/27 03:51:50;;;;;;;7.80;6.47;;;;;;;;;;5069000;28;20436;-61
2021/09/27 03:54:27;;;;;;;7.63;5.40;;;;;;;;;;5069441;28;20660;-63
2021/09/27 03:57:07;;;;;;;13.55;6.43;;;;;;;;;;5067684;28;20048;-63
2021/09/27 03:59:53;;;;;;;7.13;6.15;;;;;;;;;;5066261;28;20466;-63
2021/09/27 04:02:35;;;;;;;9.45;5.93;;;;;;;;;;5067940;28;20036;-62
2021/09/27 04:05:15;;;;;;;6.30;4.72;;;;;;;;;;5068118;28;20123;-63
2021/09/27 04:08:22;;;;;;;9.73;6.68;;;;;;;;;;5067653;28;20089;-64
2021/09/27 04:11:21;;;;;;;8.00;5.18;;;;;;;;;;5066408;28;20071;-65
2021/09/27 04:13:56;;;;;;;6.65;5.45;;;;;;;;;;5065417;28;20032;-62
2021/09/27 04:16:39;;;;;;;7.50;6.20;;;;;;;;;;5068655;28;20115;-62
2021/09/27 04:19:18;;;;;;;6.00;4.60;;;;;;;;;;5068090;28;20574;-62
2021/09/27 04:21:56;;;;;;;8.52;6.00;;;;;;;;;;5066608;28;20036;-62
2021/09/27 04:24:31;;;;;;;8.77;6.80;;;;;;;;;;5064544;28;20036;-63
2021/09/27 04:27:23;;;;;;;6.68;5.00;;;;;;;;;;5061268;28;20252;-63
2021/09/27 04:30:03;;;;;;;5.68;4.82;;;;;;;;;;5065025;28;20417;-63
2021/09/27 04:33:11;;;;;;;8.23;6.50;;;;;;;;;;5067942;28;20040;-62
2021/09/27 04:35:55;;;;;;;10.00;6.28;;;;;;;;;;5002090;28;20060;-61
2021/09/27 04:38:20;;;;;;;7.13;5.38;;;;;;;;;;5065174;28;20047;-64
2021/09/27 04:41:26;;;;;;;9.23;5.40;;;;;;;;;;5063210;28;20032;-63
2021/09/27 04:44:00;;;;;;;8.05;5.60;;;;;;;;;;5040788;28;20044;-64
2021/09/27 04:46:43;;;;;;;7.53;5.70;;;;;;;;;;5067386;28;20036;-64
2021/09/27 04:49:27;;;;;;;6.95;5.18;;;;;;;;;;5067099;28;20032;-64
2021/09/27 04:52:13;;;;;;;8.23;5.30;;;;;;;;;;5067771;28;20032;-61
2021/09/27 04:55:02;;;;;;;6.90;6.20;;;;;;;;;;5067578;28;20598;-61
2021/09/27 04:58:06;;;;;;;8.15;6.47;;;;;;;;;;5066700;28;20036;-64
2021/09/27 05:01:01;;;;;;;6.18;4.80;;;;;;;;;;5066259;28;20383;-64
2021/09/27 05:03:54;;;;;;;7.78;4.80;;;;;;;;;;5067438;28;20060;-64
2021/09/27 05:06:57;;;;;;;8.73;6.35;;;;;;;;;;5066888;28;20039;-64
2021/09/27 05:09:43;;;;;;;10.32;6.05;;;;;;;;;;5022513;28;20033;-63
2021/09/27 05:12:08;;;;;;;6.63;5.75;;;;;;;;;;5022923;28;20037;-64
2021/09/27 05:14:59;;;;;;;5.78;5.18;;;;;;;;;;5045511;28;20465;-64
2021/09/27 05:17:35;;;;;;;8.20;5.53;;;;;;;;;;5063193;28;20047;-63
2021/09/27 05:20:23;;;;;;;8.13;5.03;;;;;;;;;;5062317;28;20474;-63
2021/09/27 05:23:14;;;;;;;10.27;6.05;;;;;;;;;;5066671;28;20138;-63
2021/09/27 05:25:52;;;;;;;8.05;5.65;;;;;;;;;;5034305;28;20059;-64
2021/09/27 05:28:36;;;;;;;8.48;4.65;;;;;;;;;;5062884;28;20032;-63
2021/09/27 05:31:26;;;;;;;9.35;5.50;;;;;;;;;;5064824;28;20039;-63
2021/09/27 05:34:36;;;;;;;6.63;5.93;;;;;;;;;;5066845;28;20745;-63
2021/09/27 05:37:31;;;;;;;8.13;5.82;;;;;;;;;;5065601;28;20086;-63
2021/09/27 05:40:00;;;;;;;6.95;4.95;;;;;;;;;;5064727;28;20390;-63
2021/09/27 05:42:48;;;;;;;7.88;5.30;;;;;;;;;;5060423;28;20060;-63
2021/09/27 05:45:19;;;;;;;5.88;5.07;;;;;;;;;;5064761;28;20032;-64
2021/09/27 05:48:11;;;;;;;8.65;5.00;;;;;;;;;;5066120;28;20024;-64
2021/09/27 05:51:01;;;;;;;5.38;4.45;;;;;;;;;;5045808;28;20119;-64
2021/09/27 05:53:39;;;;;;;9.10;4.93;;;;;;;;;;5067119;28;20079;-64
2021/09/27 05:56:29;;;;;;;5.90;4.72;;;;;;;;;;5068091;28;20105;-64
2021/09/27 05:59:33;;;;;;;7.10;5.43;;;;;;;;;;5069148;28;20111;-64
2021/09/27 06:02:13;;;;;;;9.68;5.15;;;;;;;;;;5069086;28;20116;-64
2021/09/27 06:05:07;;;;;;;6.28;5.07;;;;;;;;;;5066953;28;20028;-64
2021/09/27 06:07:42;;;;;;;6.22;5.20;;;;;;;;;;5068690;28;20028;-64
2021/09/27 06:10:23;;;;;;;7.30;4.97;;;;;;;;;;5059552;28;20024;-64
2021/09/27 06:13:07;;;;;;;5.90;5.30;;;;;;;;;;5069501;28;20048;-64
2021/09/27 06:16:18;;;;;;;7.57;5.15;;;;;;;;;;5063392;28;20032;-64
2021/09/27 06:19:10;;;;;;;7.50;5.72;;;;;;;;;;5006231;28;20093;-62
2021/09/27 06:21:41;;;;;;;6.60;5.00;;;;;;;;;;5067692;28;20362;-63
2021/09/27 06:24:33;;;;;;;7.85;5.75;;;;;;;;;;5068533;28;20048;-64
2021/09/27 06:27:14;;;;;;;6.80;5.47;;;;;;;;;;5059886;28;20048;-63
2021/09/27 06:29:51;;;;;;;;;;;;;;;;;;5072145;28;20508;-63
2021/09/27 06:32:42;;;;;;;7.30;5.18;;;;;;;;;;5071396;28;19958;-64
2021/09/27 06:35:13;;;;;;;6.05;4.97;;;;;;;;;;5069773;28;20139;-64
2021/09/27 06:37:39;;;;;;;8.57;6.03;;;;;;;;;;5069222;28;20029;-64
2021/09/27 06:40:08;;;;;;;7.10;5.57;;;;;;;;;;5070942;28;20040;-64
2021/09/27 06:42:33;;;;;;;9.38;6.35;;;;;;;;;;5068043;28;20024;-63
2021/09/27 06:44:59;;;;;;;7.03;5.47;;;;;;;;;;5071036;28;20362;-64
2021/09/27 06:47:24;;;;;;;8.45;5.88;;;;;;;;;;5071924;28;20048;-63
2021/09/27 06:49:49;;;;;;;8.10;6.43;;;;;;;;;;5070892;28;20430;-64
2021/09/27 06:52:15;;;;;;;8.50;7.60;;;;;;;;;;5071575;28;20157;-64
2021/09/27 06:54:41;;;;;;;8.88;7.22;;;;;;;;;;5070207;28;20370;-63
2021/09/27 06:57:07;;;;;;;7.25;5.97;;;;;;;;;;5064148;28;20127;-64
2021/09/27 06:59:32;;;;;;;6.40;4.93;;;;;;;;;;5069596;28;20024;-63
2021/09/27 07:01:58;;;;;;;7.55;6.40;;;;;;;;;;5065455;28;20056;-64
2021/09/27 07:04:24;;;;;;;9.68;6.75;;;;;;;;;;5062273;28;20051;-63
2021/09/27 07:06:49;;;;;;;8.13;5.80;;;;;;;;;;5063965;28;20039;-64
2021/09/27 07:09:15;;;;;;;7.90;5.95;;;;;;;;;;5066918;28;20458;-63
2021/09/27 07:11:41;;;;;;;7.75;6.35;;;;;;;;;;5064369;28;20339;-63
2021/09/27 07:14:08;;;;;;;9.25;6.20;;;;;;;;;;5067194;28;20032;-63
2021/09/27 07:16:34;;;;;;;8.68;6.63;;;;;;;;;;5066234;28;20040;-64
2021/09/27 07:19:00;;;;;;;7.72;6.97;;;;;;;;;;5066965;28;20025;-64
2021/09/27 07:21:25;;;;;;;10.80;6.45;;;;;;;;;;5064781;28;20339;-64
2021/09/27 07:23:51;;;;;;;8.90;6.15;;;;;;;;;;5065005;28;20037;-63
2021/09/27 07:26:18;;;;;;;8.95;6.90;;;;;;;;;;5069247;28;20511;-64
2021/09/27 07:28:45;;;;;;;6.85;6.13;;;;;;;;;;5069166;28;20055;-63
2021/09/27 07:31:12;;;;;;;7.82;6.05;;;;;;;;;;5068677;28;20040;-64
2021/09/27 07:33:38;;;;;;;9.05;5.88;;;;;;;;;;5068587;28;20044;-64
2021/09/27 07:36:06;;;;;;;7.38;6.20;;;;;;;;;;5065919;28;20063;-64
2021/09/27 07:38:32;;;;;;;8.73;7.25;;;;;;;;;;5067483;28;20844;-63
2021/09/27 07:41:00;;;;;;;8.77;5.80;;;;;;;;;;5066597;28;20063;-64
2021/09/27 07:43:26;;;;;;;9.60;6.38;;;;;;;;;;5069621;28;20032;-64
2021/09/27 07:45:52;;;;;;;6.50;5.75;;;;;;;;;;5068454;28;20408;-64
2021/09/27 07:48:17;;;;;;;8.15;6.20;;;;;;;;;;5067370;28;20040;-64
2021/09/27 07:50:47;;;;;;;8.77;6.40;;;;;;;;;;5071247;28;20029;-64
2021/09/27 07:53:13;;;;;;;7.20;5.97;;;;;;;;;;5067291;28;20060;-63
2021/09/27 07:55:39;;;;;;;9.35;6.68;;;;;;;;;;5069491;28;20029;-64
2021/09/27 07:58:05;;;;;;;8.82;7.15;;;;;;;;;;5068115;28;20085;-62
2021/09/27 08:00:31;;;;;;;12.70;7.45;;;;;;;;;;5072455;28;20045;-62
2021/09/27 08:02:56;;;;;;;7.80;5.90;;;;;;;;;;5072224;28;20528;-63
2021/09/27 08:05:29;;;;;;;7.45;6.07;;;;;;;;;;5046487;28;20036;-63
2021/09/27 08:07:56;;;;;;;11.60;7.28;;;;;;;;;;5062832;28;20040;-64
2021/09/27 08:10:23;;;;;;;9.50;7.00;;;;;;;;;;5070767;28;20036;-63
2021/09/27 08:12:49;;;;;;;8.77;7.47;;;;;;;;;;5072938;28;20040;-64
2021/09/27 08:15:24;;;;;;;7.90;5.70;;;;;;;;;;5077605;28;20065;-62
2021/09/27 08:17:51;;;;;;;11.20;7.43;;;;;;;;;;5071062;28;20093;-60
2021/09/27 08:20:21;;;;;;;9.38;6.68;;;;;;;;;;5071169;28;20028;-60
2021/09/27 08:22:46;;;;;;;7.88;6.28;;;;;;;;;;5067684;28;20024;-61
2021/09/27 08:25:12;;;;;;;7.38;6.45;;;;;;;;;;5067001;28;20042;-60
2021/09/27 08:27:38;;;;;;;5.93;5.18;;;;;;;;;;5068683;28;20366;-61
2021/09/27 08:30:06;;;;;;;9.32;5.53;;;;;;;;;;5069244;28;20043;-61
2021/09/27 08:32:32;;;;;;;8.13;6.75;;;;;;;;;;5070666;28;20032;-61
2021/09/27 08:34:57;;;;;;;7.00;5.68;;;;;;;;;;5065959;28;20103;-63
2021/09/27 08:37:23;;;;;;;8.15;4.68;;;;;;;;;;5067608;28;20036;-61
2021/09/27 08:39:48;;;;;;;9.10;6.57;;;;;;;;;;5068042;28;20016;-60
2021/09/27 08:42:41;;;;;;;6.72;5.68;;;;;;;;;;5069413;28;20038;-59
2021/09/27 08:45:20;;;;;;;8.20;5.35;;;;;;;;;;5064163;28;20048;-59
2021/09/27 08:47:45;;;;;;;7.07;5.43;;;;;;;;;;5069606;28;20492;-59
2021/09/27 08:50:27;;;;;;;5.95;4.65;;;;;;;;;;5069349;28;20139;-59
2021/09/27 08:52:53;;;;;;;5.57;4.22;;;;;;;;;;5069323;28;20040;-60
2021/09/27 08:55:19;;;;;;;9.05;5.00;;;;;;;;;;5068471;28;20020;-60
2021/09/27 08:57:50;;;;;;;4.88;4.07;;;;;;;;;;5069950;28;20037;-59
2021/09/27 09:00:31;;;;;;;7.40;5.03;;;;;;;;;;5067185;28;20111;-59
2021/09/27 09:03:31;;;;;;;7.18;5.78;;;;;;;;;;5069880;28;20377;-59
2021/09/27 09:06:07;;;;;;;7.43;5.38;;;;;;;;;;5064299;28;20044;-59
2021/09/27 09:08:50;;;;;;;6.00;4.75;;;;;;;;;;5068030;28;20105;-59
2021/09/27 09:11:36;;;;;;;8.20;6.30;;;;;;;;;;5063524;28;20458;-59
2021/09/27 09:14:19;;;;;;;6.38;5.30;;;;;;;;;;5067525;28;20504;-59
2021/09/27 09:16:47;;;;;;;9.35;5.07;;;;;;;;;;5068040;28;20078;-59
2021/09/27 09:19:19;;;;;;;6.95;4.82;;;;;;;;;;5066612;28;20033;-60
2021/09/27 09:21:51;;;;;;;5.68;4.82;;;;;;;;;;5067182;28;20028;-59
2021/09/27 09:24:23;;;;;;;6.00;4.75;;;;;;;;;;5057234;28;20071;-60
2021/09/27 09:26:51;;;;;;;6.18;5.03;;;;;;;;;;5064623;28;20068;-60
2021/09/27 09:29:21;;;;;;;6.38;4.68;;;;;;;;;;5063015;28;20035;-60
2021/09/27 09:31:53;;;;;;;6.35;4.53;;;;;;;;;;5066180;28;20055;-60
2021/09/27 09:34:19;;;;;;;5.97;4.50;;;;;;;;;;5066603;28;20033;-60
2021/09/27 09:36:48;;;;;;;5.32;3.92;;;;;;;;;;5067688;28;20063;-60
2021/09/27 09:39:25;;;;;;;5.05;4.15;;;;;;;;;;5067478;28;20041;-60
2021/09/27 09:41:58;;;;;;;3.80;3.40;;;;;;;;;;5065942;28;20025;-59
2021/09/27 09:44:33;;;;;;;7.05;4.95;;;;;;;;;;5067667;28;20036;-60
2021/09/27 09:47:12;;;;;;;7.28;5.68;;;;;;;;;;5067120;28;20032;-61
2021/09/27 09:49:58;;;;;;;7.38;5.50;;;;;;;;;;5067605;28;20036;-61
2021/09/27 09:52:41;;;;;;;5.20;3.95;;;;;;;;;;5066289;28;20655;-60
2021/09/27 09:55:13;;;;;;;5.53;4.72;;;;;;;;;;5068404;28;20043;-61
2021/09/27 09:57:40;;;;;;;5.10;4.32;;;;;;;;;;5067265;28;20056;-61
2021/09/27 10:00:06;;;;;;;6.00;5.30;;;;;;;;;;5068772;28;20067;-61
2021/09/27 10:02:34;;;;;;;7.95;5.50;;;;;;;;;;5068269;28;20048;-60
2021/09/27 10:05:04;;;;;;;5.35;3.97;;;;;;;;;;5066097;28;20516;-60
2021/09/27 10:07:44;;;;;;;7.03;4.95;;;;;;;;;;5067950;28;20028;-60
2021/09/27 10:10:25;;;;;;;7.00;5.60;;;;;;;;;;5060864;28;20111;-60
2021/09/27 10:12:51;;;;;;;6.97;5.55;;;;;;;;;;5065034;28;20063;-60
2021/09/27 10:15:25;;;;;;;4.97;4.10;;;;;;;;;;5064233;28;20040;-60
2021/09/27 10:18:00;;;;;;;5.85;5.03;;;;;;;;;;5068203;28;20033;-60
2021/09/27 10:20:34;;;;;;;5.47;4.88;;;;;;;;;;5066223;28;20107;-60
2021/09/27 10:23:04;;;;;;;6.35;4.22;;;;;;;;;;5064319;28;20025;-60
2021/09/27 10:25:42;;;;;;;8.63;6.38;;;;;;;;;;5065460;28;20060;-60
2021/09/27 10:28:11;;;;;;;9.70;6.35;;;;;;;;;;5065472;28;20062;-60
2021/09/27 10:30:43;;;;;;;5.15;4.57;;;;;;;;;;5063898;28;20031;-59
2021/09/27 10:33:17;;;;;;;10.18;6.88;;;;;;;;;;5064086;28;20040;-60
2021/09/27 10:35:59;;;;;;;8.75;4.30;;;;;;;;;;5065288;28;20631;-60
2021/09/27 10:38:32;;;;;;;7.70;4.55;;;;;;;;;;5063959;28;20032;-59
2021/09/27 10:41:19;;;;;;;3.95;3.42;;;;;;;;;;5062573;28;20494;-60
2021/09/27 10:43:46;;;;;;;4.22;3.35;;;;;;;;;;5064963;28;20052;-60
2021/09/27 10:46:15;;;;;;;4.25;3.58;;;;;;;;;;5064641;28;20592;-60
2021/09/27 10:48:47;;;;;;;7.90;4.20;;;;;;;;;;5066160;28;20064;-60
2021/09/27 10:51:13;;;;;;;5.68;4.25;;;;;;;;;;5065797;28;20112;-60
2021/09/27 10:54:00;;;;;;;4.22;3.20;;;;;;;;;;5065350;28;20091;-60
2021/09/27 10:56:35;;;;;;;4.00;3.60;;;;;;;;;;5065751;28;20490;-60
2021/09/27 10:59:04;;;;;;;5.25;4.38;;;;;;;;;;5065516;28;20047;-60
2021/09/27 11:01:52;;;;;;;5.15;3.60;;;;;;;;;;5063978;28;20063;-60
2021/09/27 11:04:30;;;;;;;5.97;4.40;;;;;;;;;;5063892;28;20048;-59
2021/09/27 11:06:59;;;;;;;4.03;3.08;;;;;;;;;;5066433;28;20038;-61
2021/09/27 11:09:25;;;;;;;4.47;3.63;;;;;;;;;;5068182;28;20032;-60
2021/09/27 11:12:17;;;;;;;4.63;3.63;;;;;;;;;;5069386;28;20093;-60
2021/09/27 11:14:48;;;;;;;2.80;2.30;;;;;;;;;;5071172;28;20044;-60
2021/09/27 11:17:16;;;;;;;3.75;2.70;;;;;;;;;;5071774;28;20029;-59
2021/09/27 11:19:43;;;;;;;6.03;4.53;;;;;;;;;;5071732;28;20039;-60
2021/09/27 11:22:18;;;;;;;5.55;3.58;;;;;;;;;;5072025;28;20024;-60
2021/09/27 11:24:43;;;;;;;6.05;4.28;;;;;;;;;;5072442;28;20067;-60
2021/09/27 11:27:31;;;;;;;4.97;4.22;;;;;;;;;;5071958;28;20060;-60
2021/09/27 11:30:18;;;;;;;5.50;3.97;;;;;;;;;;5071570;28;20105;-61
2021/09/27 11:33:05;;;;;;;4.63;4.20;;;;;;;;;;5070997;28;20036;-60
2021/09/27 11:35:40;;;;;;;4.55;3.45;;;;;;;;;;5071239;28;20032;-60
2021/09/27 11:38:50;;;;;;;5.03;4.35;;;;;;;;;;5066766;28;20127;-60
2021/09/27 11:41:16;;;;;;;3.22;2.70;;;;;;;;;;5065981;28;20067;-60
2021/09/27 11:43:59;;;;;;;4.72;3.60;;;;;;;;;;5067552;28;20032;-60
2021/09/27 11:46:46;;;;;;;3.63;2.78;;;;;;;;;;5069030;28;20043;-60
2021/09/27 11:52:04;;;;;;;3.55;2.80;;;;;;;;;;5070075;28;20036;-60
2021/09/27 11:54:36;;;;;;;4.93;3.72;;;;;;;;;;5068994;28;20055;-59
2021/09/27 11:57:34;;;;;;;6.22;4.85;;;;;;;;;;5069122;28;20101;-60
2021/09/27 12:00:06;;;;;;;4.63;3.85;;;;;;;;;;5059743;28;20028;-60
2021/09/27 12:03:10;;;;;;;7.00;5.03;;;;;;;;;;5070147;28;20021;-60
2021/09/27 12:05:45;;;;;;;5.10;4.60;;;;;;;;;;5069012;28;20029;-59
2021/09/27 12:08:25;;;;;;;6.18;5.15;;;;;;;;;;5068486;28;20105;-59
2021/09/27 12:11:05;;;;;;;5.38;4.88;;;;;;;;;;5067708;28;20100;-58
2021/09/27 12:13:49;;;;;;;4.75;4.28;;;;;;;;;;5068657;28;20614;-59
2021/09/27 12:16:25;;;;;;;5.10;4.63;;;;;;;;;;5069716;28;20047;-59
2021/09/27 12:18:54;;;;;;;6.53;5.95;;;;;;;;;;5065290;28;20021;-59
2021/09/27 12:21:25;;;;;;;5.32;4.82;;;;;;;;;;5064246;28;20119;-60
2021/09/27 12:23:57;;;;;;;6.45;5.70;;;;;;;;;;5069429;28;20085;-60
2021/09/27 12:26:30;;;;;;;6.00;5.28;;;;;;;;;;5067457;28;20044;-60
2021/09/27 12:29:09;;;;;;;11.73;4.95;;;;;;;;;;5068406;28;20112;-60
2021/09/27 12:31:35;;;;;;;5.85;5.03;;;;;;;;;;5067154;28;20060;-60
2021/09/27 12:34:15;;;;;;;6.07;4.28;;;;;;;;;;5067731;28;20150;-60
2021/09/27 12:36:41;;;;;;;7.00;4.03;;;;;;;;;;5069213;28;20105;-60
2021/09/27 12:39:07;;;;;;;4.47;3.95;;;;;;;;;;5067146;28;20473;-60
2021/09/27 12:41:33;;;;;;;4.78;4.18;;;;;;;;;;5069902;28;20047;-60
2021/09/27 12:44:09;;;;;;;5.32;4.60;;;;;;;;;;5070158;28;20055;-59
2021/09/27 12:46:35;;;;;;;6.20;5.00;;;;;;;;;;5070220;28;20123;-60
2021/09/27 12:49:04;;;;;;;3.97;3.33;;;;;;;;;;5069795;28;20123;-60
2021/09/27 12:51:34;;;;;;;5.03;4.03;;;;;;;;;;5070547;28;20037;-60
2021/09/27 12:54:04;;;;;;;3.92;3.03;;;;;;;;;;5070057;28;20024;-60
2021/09/27 12:56:32;;;;;;;3.85;3.30;;;;;;;;;;5069520;28;20432;-60
2021/09/27 12:59:00;;;;;;;5.03;2.67;;;;;;;;;;5070008;28;20060;-60
2021/09/27 13:01:27;;;;;;;3.25;2.65;;;;;;;;;;5070398;28;20073;-59
2021/09/27 13:04:06;;;;;;;4.70;2.80;;;;;;;;;;5069405;28;20044;-60
2021/09/27 13:06:48;;;;;;;3.05;2.33;;;;;;;;;;5069069;28;20294;-60
2021/09/27 13:09:21;;;;;;;4.13;3.63;;;;;;;;;;5068719;28;20055;-60
2021/09/27 13:12:07;;;;;;;3.60;3.15;;;;;;;;;;5068257;28;20500;-59
2021/09/27 13:14:33;;;;;;;3.10;2.50;;;;;;;;;;5069588;28;20040;-59
2021/09/27 13:17:22;;;;;;;4.38;3.25;;;;;;;;;;5069017;28;20056;-59
2021/09/27 13:19:51;;;;;;;3.75;2.92;;;;;;;;;;5070177;28;20146;-59
2021/09/27 13:22:26;;;;;;;3.13;2.75;;;;;;;;;;5068000;28;20036;-59
2021/09/27 13:24:59;;;;;;;3.15;2.65;;;;;;;;;;5069036;28;20029;-59
2021/09/27 13:27:32;;;;;;;3.53;2.88;;;;;;;;;;5070065;28;20044;-59
2021/09/27 13:30:13;;;;;;;10.95;4.50;;;;;;;;;;5067307;28;20037;-59
2021/09/27 13:32:55;;;;;;;4.22;3.10;;;;;;;;;;5058571;28;20032;-59
2021/09/27 13:35:36;;;;;;;4.10;2.65;;;;;;;;;;5069465;28;20043;-59
2021/09/27 13:38:13;;;;;;;4.95;3.90;;;;;;;;;;5068502;28;20040;-59
2021/09/27 13:40:43;;;;;;;3.60;3.13;;;;;;;;;;5068047;28;20028;-60
2021/09/27 13:43:24;;;;;;;3.75;3.13;;;;;;;;;;5067351;28;20398;-59
2021/09/27 13:45:53;;;;;;;3.42;2.70;;;;;;;;;;5068676;28;20025;-59
2021/09/27 13:48:19;;;;;;;4.05;3.65;;;;;;;;;;5069627;28;20059;-59
2021/09/27 13:50:49;;;;;;;5.78;3.30;;;;;;;;;;5064064;28;20032;-59
2021/09/27 13:53:24;;;;;;;4.18;3.78;;;;;;;;;;5069366;28;20040;-59
2021/09/27 13:55:51;;;;;;;3.17;2.70;;;;;;;;;;5069626;28;20127;-60
2021/09/27 13:58:18;;;;;;;3.45;2.83;;;;;;;;;;5069370;28;20028;-59
2021/09/27 14:00:43;;;;;;;3.03;2.25;;;;;;;;;;5069016;28;20323;-59
2021/09/27 14:03:09;;;;;;;3.33;3.03;;;;;;;;;;5069650;28;20043;-61
2021/09/27 14:05:34;;;;;;;3.70;3.30;;;;;;;;;;5069763;28;20469;-60
2021/09/27 14:08:05;;;;;;;3.92;3.45;;;;;;;;;;5068828;28;20048;-60
2021/09/27 14:10:31;;;;;;;3.80;2.78;;;;;;;;;;5067175;28;20048;-60
2021/09/27 14:12:56;;;;;;;4.47;4.07;;;;;;;;;;5069354;28;20033;-60
2021/09/27 14:15:21;;;;;;;4.05;3.72;;;;;;;;;;5068381;28;20071;-59
2021/09/27 14:17:47;;;;;;;4.50;3.88;;;;;;;;;;5067244;28;20052;-60
2021/09/27 14:20:12;;;;;;;3.95;3.63;;;;;;;;;;5067087;28;20037;-60
2021/09/27 14:22:38;;;;;;;4.93;4.53;;;;;;;;;;5070391;28;20066;-60
2021/09/27 14:25:06;;;;;;;4.20;3.80;;;;;;;;;;5067089;28;20132;-59
2021/09/27 14:27:32;;;;;;;3.47;2.97;;;;;;;;;;5069660;28;20017;-59
2021/09/27 14:29:57;;;;;;;3.75;3.33;;;;;;;;;;5069397;28;20421;-60
2021/09/27 14:32:27;;;;;;;14.32;8.52;;;;;;;;;;5069551;28;20033;-59
2021/09/27 14:34:54;;;;;;;6.05;5.25;;;;;;;;;;5068634;28;20066;-59
2021/09/27 14:37:20;;;;;;;5.22;4.82;;;;;;;;;;5069425;28;20434;-60
2021/09/27 14:39:47;;;;;;;4.53;4.13;;;;;;;;;;5068472;28;20048;-60
2021/09/27 14:42:13;;;;;;;4.45;4.05;;;;;;;;;;5068382;28;20601;-60
2021/09/27 14:44:38;;;;;;;2.75;2.22;;;;;;;;;;5071844;28;20031;-59
2021/09/27 14:47:04;;;;;;;3.10;2.80;;;;;;;;;;5073365;28;20036;-59
2021/09/27 14:49:29;;;;;;;4.32;3.78;;;;;;;;;;5073643;28;20116;-59
2021/09/27 14:51:55;;;;;;;3.90;3.50;;;;;;;;;;5072567;28;20023;-59
2021/09/27 14:54:20;;;;;;;4.53;4.13;;;;;;;;;;5069530;28;20040;-60
2021/09/27 14:56:46;;;;;;;3.63;3.33;;;;;;;;;;5072651;28;20033;-59
2021/09/27 14:59:12;;;;;;;7.22;4.82;;;;;;;;;;5071345;28;20054;-59
2021/09/27 15:01:38;;;;;;;4.03;3.63;;;;;;;;;;5072163;28;20038;-59
2021/09/27 15:04:03;;;;;;;4.80;4.40;;;;;;;;;;5071778;28;20109;-59
2021/09/27 15:06:30;;;;;;;4.65;4.25;;;;;;;;;;5072766;28;20032;-60
2021/09/27 15:08:57;;;;;;;4.32;3.92;;;;;;;;;;5071869;28;20032;-60
2021/09/27 15:11:22;;;;;;;3.80;3.50;;;;;;;;;;5072581;28;20342;-60
2021/09/27 15:13:48;;;;;;;3.40;2.83;;;;;;;;;;5072426;28;20025;-60
2021/09/27 15:16:14;;;;;;;3.28;2.97;;;;;;;;;;5071883;28;20024;-59
2021/09/27 15:18:39;;;;;;;3.88;3.47;;;;;;;;;;5070664;28;20024;-60
2021/09/27 15:21:09;;;;;;;3.97;3.67;;;;;;;;;;5070314;28;20028;-60
2021/09/27 15:23:42;;;;;;;4.45;4.05;;;;;;;;;;5071224;28;20048;-59
2021/09/27 15:26:19;;;;;;;5.00;4.60;;;;;;;;;;5071761;28;20039;-60
2021/09/27 15:28:45;;;;;;;3.30;3.00;;;;;;;;;;5070962;28;20551;-59
2021/09/27 15:31:14;;;;;;;4.93;4.38;;;;;;;;;;5071692;28;20055;-60
2021/09/27 15:33:41;;;;;;;4.38;3.97;;;;;;;;;;5071108;28;20039;-59